Terminal Aerodrome Forecast
Issued by NWS Tulsa, OK

Home | Current Version | Previous Version | Text Only | Print | Product List | Glossary On
Versions: 1 2 3 4 5 6 7 8 9 10 11 12
000
FTUS44 KTSA 280500
TAFTUL
TAF
KTUL 280520Z 2806/2906 13005KT P6SM SCT250
     FM281400 17009KT P6SM SCT250
     FM281800 16010KT P6SM SCT060
     FM290200 15007KT P6SM BKN250=

USA.gov is the U.S. government's official web portal to all federal, state and local government web resources and services.